Terminal Aerodrome Forecast
Issued by NWS

Home | Current Version | Previous Version | Text Only | Print | Product List | Glossary On
Versions: 1 2 3 4 5 6 7 8 9 10 11 12 13 14 15 16
000
FTUS45 KRIW 270500
TAFCPR
TAF
KCPR 270539Z 2706/2806 22011KT P6SM FEW100 BKN200
     FM270800 22016G24KT P6SM SCT140 BKN200
     FM271400 22024G32KT P6SM SCT140 BKN200
     FM280000 22018G26KT P6SM FEW150 SCT200=

USA.gov is the U.S. government's official web portal to all federal, state and local government web resources and services.